sensor_id;sensor_type;location;lat;lon;timestamp;pressure;altitude;pressure_sealevel;temperature;humidity
32452;BME280;45528;52.102;5.242;2023-05-20T00:01:26;102167.0;;;18.52;49.45
32452;BME280;45528;52.102;5.242;2023-05-20T00:04:39;102168.0;;;18.55;49.44
32452;BME280;45528;52.102;5.242;2023-05-20T00:06:15;102164.0;;;18.46;49.66
32452;BME280;45528;52.102;5.242;2023-05-20T00:07:51;102163.0;;;18.55;49.55
32452;BME280;45528;52.102;5.242;2023-05-20T00:09:27;102158.0;;;18.53;49.67
32452;BME280;45528;52.102;5.242;2023-05-20T00:12:40;102157.0;;;18.5;49.49
32452;BME280;45528;52.102;5.242;2023-05-20T00:14:16;102158.0;;;18.52;49.57
32452;BME280;45528;52.102;5.242;2023-05-20T00:15:52;102160.0;;;18.34;50.02
32452;BME280;45528;52.102;5.242;2023-05-20T00:19:05;102160.0;;;18.38;50.43
32452;BME280;45528;52.102;5.242;2023-05-20T00:20:42;102164.0;;;18.46;50.07
32452;BME280;45528;52.102;5.242;2023-05-20T00:22:18;102165.0;;;18.41;50.18
32452;BME280;45528;52.102;5.242;2023-05-20T00:25:30;102165.0;;;18.41;50.15
32452;BME280;45528;52.102;5.242;2023-05-20T00:27:06;102165.0;;;18.31;50.04
32452;BME280;45528;52.102;5.242;2023-05-20T00:28:43;102159.0;;;18.25;50.43
32452;BME280;45528;52.102;5.242;2023-05-20T00:31:55;102161.0;;;18.28;50.23
32452;BME280;45528;52.102;5.242;2023-05-20T00:33:31;102160.0;;;18.23;50.62
32452;BME280;45528;52.102;5.242;2023-05-20T00:35:08;102166.0;;;18.12;50.74
32452;BME280;45528;52.102;5.242;2023-05-20T00:36:44;102160.0;;;18.18;50.61
32452;BME280;45528;52.102;5.242;2023-05-20T00:39:56;102159.0;;;17.97;51.26
32452;BME280;45528;52.102;5.242;2023-05-20T00:41:32;102157.0;;;18.13;50.79
32452;BME280;45528;52.102;5.242;2023-05-20T00:43:08;102155.0;;;18.12;50.97
32452;BME280;45528;52.102;5.242;2023-05-20T00:46:22;102162.0;;;17.93;51.04
32452;BME280;45528;52.102;5.242;2023-05-20T00:47:59;102164.0;;;17.91;51.3
32452;BME280;45528;52.102;5.242;2023-05-20T00:49:36;102159.0;;;17.71;51.67
32452;BME280;45528;52.102;5.242;2023-05-20T00:52:48;102157.0;;;17.98;51.37
32452;BME280;45528;52.102;5.242;2023-05-20T00:54:25;102149.0;;;18.11;50.85
32452;BME280;45528;52.102;5.242;2023-05-20T00:56:01;102147.0;;;18.12;50.85
32452;BME280;45528;52.102;5.242;2023-05-20T00:57:38;102148.0;;;18.13;50.71
32452;BME280;45528;52.102;5.242;2023-05-20T01:00:50;102141.0;;;18.11;50.88
32452;BME280;45528;52.102;5.242;2023-05-20T01:02:27;102137.0;;;18.13;51.17
32452;BME280;45528;52.102;5.242;2023-05-20T01:04:04;102140.0;;;18.16;50.99
32452;BME280;45528;52.102;5.242;2023-05-20T01:07:17;102133.0;;;17.98;51.68
32452;BME280;45528;52.102;5.242;2023-05-20T01:08:53;102144.0;;;17.86;51.66
32452;BME280;45528;52.102;5.242;2023-05-20T01:10:30;102139.0;;;18.04;51.59
32452;BME280;45528;52.102;5.242;2023-05-20T01:13:54;102141.0;;;17.91;51.74
32452;BME280;45528;52.102;5.242;2023-05-20T01:15:32;102137.0;;;17.88;52.15
32452;BME280;45528;52.102;5.242;2023-05-20T01:17:10;102128.0;;;17.97;51.63
32452;BME280;45528;52.102;5.242;2023-05-20T01:18:48;102126.0;;;18.0;51.43
32452;BME280;45528;52.102;5.242;2023-05-20T01:22:06;102127.0;;;17.97;51.68
32452;BME280;45528;52.102;5.242;2023-05-20T01:23:43;102128.0;;;17.97;52.02
32452;BME280;45528;52.102;5.242;2023-05-20T01:25:19;102124.0;;;17.98;51.75
32452;BME280;45528;52.102;5.242;2023-05-20T01:26:56;102120.0;;;17.91;51.7
32452;BME280;45528;52.102;5.242;2023-05-20T01:30:11;102123.0;;;17.78;52.26
32452;BME280;45528;52.102;5.242;2023-05-20T01:31:47;102117.0;;;17.95;51.81
32452;BME280;45528;52.102;5.242;2023-05-20T01:33:24;102117.0;;;17.66;52.73
32452;BME280;45528;52.102;5.242;2023-05-20T01:36:44;102112.0;;;17.79;52.57
32452;BME280;45528;52.102;5.242;2023-05-20T01:38:22;102105.0;;;17.93;52.57
32452;BME280;45528;52.102;5.242;2023-05-20T01:39:59;102102.0;;;17.91;51.84
32452;BME280;45528;52.102;5.242;2023-05-20T01:41:36;102105.0;;;17.77;52.14
32452;BME280;45528;52.102;5.242;2023-05-20T01:44:50;102101.0;;;17.86;51.84
32452;BME280;45528;52.102;5.242;2023-05-20T01:46:26;102102.0;;;17.84;52.31
32452;BME280;45528;52.102;5.242;2023-05-20T01:48:02;102110.0;;;17.75;52.2
32452;BME280;45528;52.102;5.242;2023-05-20T01:51:14;102099.0;;;17.77;52.71
32452;BME280;45528;52.102;5.242;2023-05-20T01:52:50;102102.0;;;17.8;52.3
32452;BME280;45528;52.102;5.242;2023-05-20T01:54:27;102110.0;;;17.77;52.11
32452;BME280;45528;52.102;5.242;2023-05-20T01:57:40;102105.0;;;17.5;52.33
32452;BME280;45528;52.102;5.242;2023-05-20T01:59:16;102108.0;;;17.8;51.8
32452;BME280;45528;52.102;5.242;2023-05-20T02:00:52;102109.0;;;17.73;52.04
32452;BME280;45528;52.102;5.242;2023-05-20T02:02:29;102110.0;;;17.66;52.25
32452;BME280;45528;52.102;5.242;2023-05-20T02:05:41;102108.0;;;17.68;52.29
32452;BME280;45528;52.102;5.242;2023-05-20T02:07:18;102105.0;;;17.45;52.87
32452;BME280;45528;52.102;5.242;2023-05-20T02:08:54;102106.0;;;17.7;52.39
32452;BME280;45528;52.102;5.242;2023-05-20T02:12:08;102101.0;;;17.7;52.45
32452;BME280;45528;52.102;5.242;2023-05-20T02:13:44;102105.0;;;17.66;52.26
32452;BME280;45528;52.102;5.242;2023-05-20T02:15:20;102106.0;;;17.52;53.01
32452;BME280;45528;52.102;5.242;2023-05-20T02:18:32;102109.0;;;17.64;52.61
32452;BME280;45528;52.102;5.242;2023-05-20T02:20:09;102106.0;;;17.5;52.62
32452;BME280;45528;52.102;5.242;2023-05-20T02:21:46;102110.0;;;17.09;53.66
32452;BME280;45528;52.102;5.242;2023-05-20T02:23:22;102110.0;;;17.56;52.75
32452;BME280;45528;52.102;5.242;2023-05-20T02:26:34;102107.0;;;17.57;52.74
32452;BME280;45528;52.102;5.242;2023-05-20T02:28:10;102107.0;;;17.34;53.22
32452;BME280;45528;52.102;5.242;2023-05-20T02:29:47;102110.0;;;17.57;53.32
32452;BME280;45528;52.102;5.242;2023-05-20T02:32:59;102105.0;;;17.47;53.05
32452;BME280;45528;52.102;5.242;2023-05-20T02:34:35;102103.0;;;17.43;53.3
32452;BME280;45528;52.102;5.242;2023-05-20T02:36:11;102105.0;;;17.46;53.12
32452;BME280;45528;52.102;5.242;2023-05-20T02:39:24;102100.0;;;17.41;53.43
32452;BME280;45528;52.102;5.242;2023-05-20T02:41:00;102101.0;;;17.32;53.45
32452;BME280;45528;52.102;5.242;2023-05-20T02:42:36;102099.0;;;17.36;53.3
32452;BME280;45528;52.102;5.242;2023-05-20T02:45:49;102094.0;;;17.41;53.22
32452;BME280;45528;52.102;5.242;2023-05-20T02:47:26;102091.0;;;17.37;53.14
32452;BME280;45528;52.102;5.242;2023-05-20T02:49:02;102094.0;;;17.25;53.83
32452;BME280;45528;52.102;5.242;2023-05-20T02:50:38;102089.0;;;17.43;53.6
32452;BME280;45528;52.102;5.242;2023-05-20T02:53:51;102088.0;;;17.27;53.58
32452;BME280;45528;52.102;5.242;2023-05-20T02:55:27;102090.0;;;17.41;53.11
32452;BME280;45528;52.102;5.242;2023-05-20T02:57:03;102087.0;;;17.36;53.64
32452;BME280;45528;52.102;5.242;2023-05-20T03:00:15;102085.0;;;17.34;53.38
32452;BME280;45528;52.102;5.242;2023-05-20T03:01:52;102085.0;;;17.28;54.04
32452;BME280;45528;52.102;5.242;2023-05-20T03:03:28;102087.0;;;17.13;54.2
32452;BME280;45528;52.102;5.242;2023-05-20T03:06:41;102085.0;;;17.14;54.18
32452;BME280;45528;52.102;5.242;2023-05-20T03:08:19;102089.0;;;17.13;54.2
32452;BME280;45528;52.102;5.242;2023-05-20T03:09:55;102090.0;;;16.97;54.5
32452;BME280;45528;52.102;5.242;2023-05-20T03:11:32;102091.0;;;16.89;54.78
32452;BME280;45528;52.102;5.242;2023-05-20T03:14:44;102089.0;;;17.0;54.37
32452;BME280;45528;52.102;5.242;2023-05-20T03:16:21;102092.0;;;17.03;54.3
32452;BME280;45528;52.102;5.242;2023-05-20T03:17:57;102087.0;;;16.93;54.6
32452;BME280;45528;52.102;5.242;2023-05-20T03:21:10;102087.0;;;17.0;54.55
32452;BME280;45528;52.102;5.242;2023-05-20T03:22:46;102088.0;;;17.09;54.22
32452;BME280;45528;52.102;5.242;2023-05-20T03:24:22;102090.0;;;16.95;54.57
32452;BME280;45528;52.102;5.242;2023-05-20T03:27:34;102091.0;;;17.04;54.65
32452;BME280;45528;52.102;5.242;2023-05-20T03:29:11;102093.0;;;17.0;54.65
32452;BME280;45528;52.102;5.242;2023-05-20T03:30:47;102097.0;;;17.02;54.5
32452;BME280;45528;52.102;5.242;2023-05-20T03:32:23;102092.0;;;16.9;54.95
32452;BME280;45528;52.102;5.242;2023-05-20T03:35:35;102091.0;;;16.9;55.14
32452;BME280;45528;52.102;5.242;2023-05-20T03:37:11;102092.0;;;16.97;54.63
32452;BME280;45528;52.102;5.242;2023-05-20T03:38:48;102087.0;;;16.95;55.28
32452;BME280;45528;52.102;5.242;2023-05-20T03:42:00;102087.0;;;16.96;54.72
32452;BME280;45528;52.102;5.242;2023-05-20T03:43:36;102088.0;;;16.96;54.74
32452;BME280;45528;52.102;5.242;2023-05-20T03:45:13;102089.0;;;16.93;54.98
32452;BME280;45528;52.102;5.242;2023-05-20T03:48:25;102086.0;;;16.88;54.78
32452;BME280;45528;52.102;5.242;2023-05-20T03:50:01;102086.0;;;17.16;54.32
32452;BME280;45528;52.102;5.242;2023-05-20T03:51:37;102087.0;;;17.2;54.29
32452;BME280;45528;52.102;5.242;2023-05-20T03:54:50;102088.0;;;17.18;54.61
32452;BME280;45528;52.102;5.242;2023-05-20T03:56:26;102094.0;;;17.16;54.96
32452;BME280;45528;52.102;5.242;2023-05-20T03:58:02;102092.0;;;17.18;54.43
32452;BME280;45528;52.102;5.242;2023-05-20T03:59:38;102089.0;;;17.18;54.78
32452;BME280;45528;52.102;5.242;2023-05-20T04:02:51;102089.0;;;17.09;54.92
32452;BME280;45528;52.102;5.242;2023-05-20T04:04:27;102084.0;;;17.21;54.96
32452;BME280;45528;52.102;5.242;2023-05-20T04:06:03;102087.0;;;17.21;54.8
32452;BME280;45528;52.102;5.242;2023-05-20T04:09:15;102083.0;;;17.23;55.05
32452;BME280;45528;52.102;5.242;2023-05-20T04:10:54;102081.0;;;16.84;55.72
32452;BME280;45528;52.102;5.242;2023-05-20T04:12:31;102077.0;;;17.05;55.53
32452;BME280;45528;52.102;5.242;2023-05-20T04:15:43;102076.0;;;17.18;55.28
32452;BME280;45528;52.102;5.242;2023-05-20T04:17:19;102080.0;;;17.31;54.95
32452;BME280;45528;52.102;5.242;2023-05-20T04:18:56;102084.0;;;17.47;54.77
32452;BME280;45528;52.102;5.242;2023-05-20T04:20:32;102081.0;;;17.45;54.66
32452;BME280;45528;52.102;5.242;2023-05-20T04:23:44;102086.0;;;17.31;55.09
32452;BME280;45528;52.102;5.242;2023-05-20T04:25:20;102087.0;;;17.39;55.08
32452;BME280;45528;52.102;5.242;2023-05-20T04:26:56;102087.0;;;17.38;54.78
32452;BME280;45528;52.102;5.242;2023-05-20T04:30:10;102088.0;;;17.64;54.35
32452;BME280;45528;52.102;5.242;2023-05-20T04:31:46;102092.0;;;17.63;54.24
32452;BME280;45528;52.102;5.242;2023-05-20T04:33:22;102087.0;;;17.71;54.01
32452;BME280;45528;52.102;5.242;2023-05-20T04:36:34;102086.0;;;17.71;54.23
32452;BME280;45528;52.102;5.242;2023-05-20T04:38:11;102083.0;;;17.82;53.86
32452;BME280;45528;52.102;5.242;2023-05-20T04:39:47;102087.0;;;17.96;53.48
32452;BME280;45528;52.102;5.242;2023-05-20T04:42:59;102088.0;;;18.05;53.45
32452;BME280;45528;52.102;5.242;2023-05-20T04:44:35;102088.0;;;18.02;53.66
32452;BME280;45528;52.102;5.242;2023-05-20T04:46:12;102092.0;;;18.03;53.67
32452;BME280;45528;52.102;5.242;2023-05-20T04:47:48;102096.0;;;18.16;53.18
32452;BME280;45528;52.102;5.242;2023-05-20T04:51:00;102095.0;;;18.27;53.31
32452;BME280;45528;52.102;5.242;2023-05-20T04:52:38;102098.0;;;18.23;53.22
32452;BME280;45528;52.102;5.242;2023-05-20T04:54:15;102099.0;;;18.25;53.08
32452;BME280;45528;52.102;5.242;2023-05-20T04:57:29;102095.0;;;18.25;53.12
32452;BME280;45528;52.102;5.242;2023-05-20T04:59:05;102096.0;;;18.21;53.16
32452;BME280;45528;52.102;5.242;2023-05-20T05:00:42;102092.0;;;18.36;53.0
32452;BME280;45528;52.102;5.242;2023-05-20T05:03:55;102092.0;;;18.25;53.24
32452;BME280;45528;52.102;5.242;2023-05-20T05:05:31;102089.0;;;18.3;53.31
32452;BME280;45528;52.102;5.242;2023-05-20T05:07:07;102090.0;;;18.45;52.89
32452;BME280;45528;52.102;5.242;2023-05-20T05:08:43;102092.0;;;18.38;53.26
32452;BME280;45528;52.102;5.242;2023-05-20T05:11:56;102094.0;;;18.36;53.08
32452;BME280;45528;52.102;5.242;2023-05-20T05:13:32;102091.0;;;18.63;52.22
32452;BME280;45528;52.102;5.242;2023-05-20T05:15:09;102088.0;;;18.61;52.64
32452;BME280;45528;52.102;5.242;2023-05-20T05:18:21;102091.0;;;18.62;52.33
32452;BME280;45528;52.102;5.242;2023-05-20T05:19:58;102092.0;;;18.7;52.36
32452;BME280;45528;52.102;5.242;2023-05-20T05:21:34;102090.0;;;18.59;52.33
32452;BME280;45528;52.102;5.242;2023-05-20T05:24:46;102088.0;;;18.77;51.92
32452;BME280;45528;52.102;5.242;2023-05-20T05:26:22;102092.0;;;18.61;51.93
32452;BME280;45528;52.102;5.242;2023-05-20T05:27:59;102085.0;;;18.91;51.64
32452;BME280;45528;52.102;5.242;2023-05-20T05:29:35;102081.0;;;18.91;51.43
32452;BME280;45528;52.102;5.242;2023-05-20T05:32:47;102076.0;;;19.14;50.93
32452;BME280;45528;52.102;5.242;2023-05-20T05:34:23;102080.0;;;19.12;50.88
32452;BME280;45528;52.102;5.242;2023-05-20T05:36:00;102068.0;;;19.03;50.83
32452;BME280;45528;52.102;5.242;2023-05-20T05:39:12;102070.0;;;19.02;51.05
32452;BME280;45528;52.102;5.242;2023-05-20T05:40:48;102073.0;;;19.32;50.42
32452;BME280;45528;52.102;5.242;2023-05-20T05:42:24;102071.0;;;19.32;50.41
32452;BME280;45528;52.102;5.242;2023-05-20T05:45:37;102071.0;;;19.25;50.07
32452;BME280;45528;52.102;5.242;2023-05-20T05:47:14;102072.0;;;19.66;49.57
32452;BME280;45528;52.102;5.242;2023-05-20T05:48:50;102073.0;;;19.54;49.29
32452;BME280;45528;52.102;5.242;2023-05-20T05:52:03;102074.0;;;19.72;48.59
32452;BME280;45528;52.102;5.242;2023-05-20T05:53:39;102074.0;;;19.84;48.43
32452;BME280;45528;52.102;5.242;2023-05-20T05:55:15;102073.0;;;19.98;48.3
32452;BME280;45528;52.102;5.242;2023-05-20T05:56:51;102073.0;;;19.7;49.0
32452;BME280;45528;52.102;5.242;2023-05-20T06:00:06;102072.0;;;19.89;48.53
32452;BME280;45528;52.102;5.242;2023-05-20T06:01:43;102068.0;;;19.88;48.41
32452;BME280;45528;52.102;5.242;2023-05-20T06:03:19;102066.0;;;20.25;47.73
32452;BME280;45528;52.102;5.242;2023-05-20T06:06:32;102067.0;;;20.32;47.2
32452;BME280;45528;52.102;5.242;2023-05-20T06:08:08;102067.0;;;20.3;47.52
32452;BME280;45528;52.102;5.242;2023-05-20T06:09:45;102069.0;;;20.39;47.07
32452;BME280;45528;52.102;5.242;2023-05-20T06:12:57;102063.0;;;20.45;47.56
32452;BME280;45528;52.102;5.242;2023-05-20T06:14:33;102065.0;;;20.47;47.14
32452;BME280;45528;52.102;5.242;2023-05-20T06:16:09;102069.0;;;20.43;47.09
32452;BME280;45528;52.102;5.242;2023-05-20T06:17:45;102069.0;;;20.51;47.02
32452;BME280;45528;52.102;5.242;2023-05-20T06:20:58;102070.0;;;20.38;47.04
32452;BME280;45528;52.102;5.242;2023-05-20T06:22:35;102067.0;;;20.48;47.25
32452;BME280;45528;52.102;5.242;2023-05-20T06:24:11;102070.0;;;20.53;46.88
32452;BME280;45528;52.102;5.242;2023-05-20T06:27:25;102068.0;;;20.84;46.49
32452;BME280;45528;52.102;5.242;2023-05-20T06:29:01;102075.0;;;20.93;45.67
32452;BME280;45528;52.102;5.242;2023-05-20T06:30:37;102071.0;;;20.78;45.58
32452;BME280;45528;52.102;5.242;2023-05-20T06:33:49;102074.0;;;21.06;45.69
32452;BME280;45528;52.102;5.242;2023-05-20T06:35:26;102081.0;;;21.17;45.1
32452;BME280;45528;52.102;5.242;2023-05-20T06:37:02;102077.0;;;20.96;45.26
32452;BME280;45528;52.102;5.242;2023-05-20T06:38:38;102081.0;;;20.84;44.76
32452;BME280;45528;52.102;5.242;2023-05-20T06:41:50;102075.0;;;21.12;44.73
32452;BME280;45528;52.102;5.242;2023-05-20T06:43:26;102075.0;;;20.84;45.48
32452;BME280;45528;52.102;5.242;2023-05-20T06:45:04;102075.0;;;21.14;44.86
32452;BME280;45528;52.102;5.242;2023-05-20T06:48:17;102071.0;;;21.23;44.49
32452;BME280;45528;52.102;5.242;2023-05-20T06:49:53;102081.0;;;21.25;44.48
32452;BME280;45528;52.102;5.242;2023-05-20T06:51:29;102067.0;;;21.13;44.76
32452;BME280;45528;52.102;5.242;2023-05-20T06:54:42;102064.0;;;21.45;44.91
32452;BME280;45528;52.102;5.242;2023-05-20T06:56:18;102059.0;;;21.51;44.26
32452;BME280;45528;52.102;5.242;2023-05-20T06:57:54;102056.0;;;21.84;43.86
32452;BME280;45528;52.102;5.242;2023-05-20T07:01:06;102059.0;;;21.56;43.9
32452;BME280;45528;52.102;5.242;2023-05-20T07:02:42;102052.0;;;21.91;43.42
32452;BME280;45528;52.102;5.242;2023-05-20T07:04:19;102049.0;;;22.07;42.87
32452;BME280;45528;52.102;5.242;2023-05-20T07:05:55;102046.0;;;22.15;42.7
32452;BME280;45528;52.102;5.242;2023-05-20T07:09:07;102045.0;;;22.24;42.33
32452;BME280;45528;52.102;5.242;2023-05-20T07:10:43;102047.0;;;22.42;42.56
32452;BME280;45528;52.102;5.242;2023-05-20T07:12:20;102040.0;;;22.36;42.11
32452;BME280;45528;52.102;5.242;2023-05-20T07:15:33;102039.0;;;22.61;41.71
32452;BME280;45528;52.102;5.242;2023-05-20T07:17:10;102051.0;;;22.6;41.53
32452;BME280;45528;52.102;5.242;2023-05-20T07:18:46;102043.0;;;22.2;42.42
32452;BME280;45528;52.102;5.242;2023-05-20T07:21:59;102039.0;;;22.3;42.22
32452;BME280;45528;52.102;5.242;2023-05-20T07:23:35;102043.0;;;22.85;41.65
32452;BME280;45528;52.102;5.242;2023-05-20T07:25:11;102040.0;;;23.05;41.97
32452;BME280;45528;52.102;5.242;2023-05-20T07:26:47;102041.0;;;23.15;40.85
32452;BME280;45528;52.102;5.242;2023-05-20T07:29:59;102041.0;;;23.01;40.56
32452;BME280;45528;52.102;5.242;2023-05-20T07:31:35;102032.0;;;23.21;40.87
32452;BME280;45528;52.102;5.242;2023-05-20T07:33:12;102036.0;;;23.35;40.76
32452;BME280;45528;52.102;5.242;2023-05-20T07:36:25;102031.0;;;22.96;40.6
32452;BME280;45528;52.102;5.242;2023-05-20T07:38:01;102027.0;;;23.16;40.65
32452;BME280;45528;52.102;5.242;2023-05-20T07:39:38;102036.0;;;23.21;40.6
32452;BME280;45528;52.102;5.242;2023-05-20T07:42:50;102034.0;;;23.58;39.53
32452;BME280;45528;52.102;5.242;2023-05-20T07:44:26;102027.0;;;23.38;39.85
32452;BME280;45528;52.102;5.242;2023-05-20T07:46:03;102031.0;;;23.61;38.96
32452;BME280;45528;52.102;5.242;2023-05-20T07:47:39;102023.0;;;23.31;39.49
32452;BME280;45528;52.102;5.242;2023-05-20T07:50:52;102022.0;;;23.77;39.62
32452;BME280;45528;52.102;5.242;2023-05-20T07:52:28;102018.0;;;23.73;38.78
32452;BME280;45528;52.102;5.242;2023-05-20T07:54:04;102026.0;;;23.64;38.53
32452;BME280;45528;52.102;5.242;2023-05-20T07:57:17;102017.0;;;23.72;38.04
32452;BME280;45528;52.102;5.242;2023-05-20T07:58:55;102021.0;;;23.57;38.42
32452;BME280;45528;52.102;5.242;2023-05-20T08:00:32;102021.0;;;23.47;37.9
32452;BME280;45528;52.102;5.242;2023-05-20T08:03:44;102015.0;;;23.5;37.93
32452;BME280;45528;52.102;5.242;2023-05-20T08:05:20;102009.0;;;23.5;38.85
32452;BME280;45528;52.102;5.242;2023-05-20T08:06:56;102001.0;;;23.74;38.46
32452;BME280;45528;52.102;5.242;2023-05-20T08:10:09;102003.0;;;23.95;38.85
32452;BME280;45528;52.102;5.242;2023-05-20T08:11:46;102000.0;;;23.97;38.01
32452;BME280;45528;52.102;5.242;2023-05-20T08:13:24;102002.0;;;23.95;37.74
32452;BME280;45528;52.102;5.242;2023-05-20T08:15:00;102006.0;;;23.72;37.03
32452;BME280;45528;52.102;5.242;2023-05-20T08:18:13;102005.0;;;24.01;36.71
32452;BME280;45528;52.102;5.242;2023-05-20T08:19:49;102005.0;;;24.51;36.24
32452;BME280;45528;52.102;5.242;2023-05-20T08:21:25;102012.0;;;24.77;36.67
32452;BME280;45528;52.102;5.242;2023-05-20T08:24:37;102005.0;;;24.44;35.6
32452;BME280;45528;52.102;5.242;2023-05-20T08:26:13;102002.0;;;24.45;37.0
32452;BME280;45528;52.102;5.242;2023-05-20T08:27:50;102002.0;;;24.64;36.61
32452;BME280;45528;52.102;5.242;2023-05-20T08:31:02;102009.0;;;24.35;36.94
32452;BME280;45528;52.102;5.242;2023-05-20T08:32:38;102000.0;;;24.37;36.14
32452;BME280;45528;52.102;5.242;2023-05-20T08:34:14;102003.0;;;24.78;35.71
32452;BME280;45528;52.102;5.242;2023-05-20T08:35:50;102008.0;;;24.67;36.04
32452;BME280;45528;52.102;5.242;2023-05-20T08:39:03;101992.0;;;24.61;36.94
32452;BME280;45528;52.102;5.242;2023-05-20T08:40:39;101993.0;;;24.72;37.17
32452;BME280;45528;52.102;5.242;2023-05-20T08:42:20;101993.0;;;25.05;37.64
32452;BME280;45528;52.102;5.242;2023-05-20T08:45:37;101997.0;;;24.9;36.15
32452;BME280;45528;52.102;5.242;2023-05-20T08:47:13;101992.0;;;25.07;34.47
32452;BME280;45528;52.102;5.242;2023-05-20T08:48:49;101984.0;;;25.07;33.49
32452;BME280;45528;52.102;5.242;2023-05-20T08:50:25;101990.0;;;24.97;35.12
32452;BME280;45528;52.102;5.242;2023-05-20T08:53:39;101985.0;;;25.44;35.25
32452;BME280;45528;52.102;5.242;2023-05-20T08:55:18;101978.0;;;25.81;34.31
32452;BME280;45528;52.102;5.242;2023-05-20T08:57:01;101983.0;;;24.85;33.31
32452;BME280;45528;52.102;5.242;2023-05-20T09:00:14;101970.0;;;25.29;32.96
32452;BME280;45528;52.102;5.242;2023-05-20T09:01:50;101967.0;;;25.08;33.11
32452;BME280;45528;52.102;5.242;2023-05-20T09:03:27;101988.0;;;25.26;33.06
32452;BME280;45528;52.102;5.242;2023-05-20T09:05:03;101995.0;;;24.76;32.1
32452;BME280;45528;52.102;5.242;2023-05-20T09:08:22;101973.0;;;25.12;31.71
32452;BME280;45528;52.102;5.242;2023-05-20T09:09:59;101976.0;;;24.77;31.94
32452;BME280;45528;52.102;5.242;2023-05-20T09:11:35;101958.0;;;24.39;32.78
32452;BME280;45528;52.102;5.242;2023-05-20T09:14:48;101976.0;;;24.18;32.75
32452;BME280;45528;52.102;5.242;2023-05-20T09:16:24;101972.0;;;24.56;32.72
32452;BME280;45528;52.102;5.242;2023-05-20T09:18:01;101962.0;;;24.71;32.71
32452;BME280;45528;52.102;5.242;2023-05-20T09:21:14;101971.0;;;24.59;31.88
32452;BME280;45528;52.102;5.242;2023-05-20T09:22:50;101964.0;;;24.97;31.66
32452;BME280;45528;52.102;5.242;2023-05-20T09:24:27;101955.0;;;24.9;31.33
32452;BME280;45528;52.102;5.242;2023-05-20T09:26:03;101964.0;;;24.79;32.33
32452;BME280;45528;52.102;5.242;2023-05-20T09:29:16;101962.0;;;24.41;32.47
32452;BME280;45528;52.102;5.242;2023-05-20T09:30:56;101959.0;;;24.33;31.96
32452;BME280;45528;52.102;5.242;2023-05-20T09:32:33;101962.0;;;24.08;32.71
32452;BME280;45528;52.102;5.242;2023-05-20T09:35:47;101956.0;;;24.54;32.92
32452;BME280;45528;52.102;5.242;2023-05-20T09:37:26;101952.0;;;24.52;31.82
32452;BME280;45528;52.102;5.242;2023-05-20T09:39:03;101952.0;;;24.8;32.53
32452;BME280;45528;52.102;5.242;2023-05-20T09:40:42;101946.0;;;24.29;32.14
32452;BME280;45528;52.102;5.242;2023-05-20T09:43:58;101936.0;;;24.39;31.63
32452;BME280;45528;52.102;5.242;2023-05-20T09:45:36;101937.0;;;24.92;31.98
32452;BME280;45528;52.102;5.242;2023-05-20T09:47:13;101944.0;;;24.99;32.14
32452;BME280;45528;52.102;5.242;2023-05-20T09:50:28;101934.0;;;25.22;31.38
32452;BME280;45528;52.102;5.242;2023-05-20T09:52:05;101941.0;;;25.17;30.15
32452;BME280;45528;52.102;5.242;2023-05-20T09:53:42;101950.0;;;25.02;30.81
32452;BME280;45528;52.102;5.242;2023-05-20T09:55:22;101931.0;;;24.31;31.76
32452;BME280;45528;52.102;5.242;2023-05-20T09:58:39;101941.0;;;24.93;30.72
32452;BME280;45528;52.102;5.242;2023-05-20T10:00:16;101939.0;;;24.53;30.89
32452;BME280;45528;52.102;5.242;2023-05-20T10:01:52;101938.0;;;24.68;30.87
32452;BME280;45528;52.102;5.242;2023-05-20T10:05:11;101960.0;;;24.43;30.67
32452;BME280;45528;52.102;5.242;2023-05-20T10:07:11;101936.0;;;24.76;31.17
32452;BME280;45528;52.102;5.242;2023-05-20T10:09:04;101935.0;;;25.1;30.54
32452;BME280;45528;52.102;5.242;2023-05-20T10:10:51;101935.0;;;25.09;30.32
32452;BME280;45528;52.102;5.242;2023-05-20T10:12:34;101948.0;;;25.33;30.14
32452;BME280;45528;52.102;5.242;2023-05-20T10:14:37;101930.0;;;24.95;30.54
32452;BME280;45528;52.102;5.242;2023-05-20T10:16:24;101918.0;;;25.34;30.78
32452;BME280;45528;52.102;5.242;2023-05-20T10:19:56;101938.0;;;25.2;30.28
32452;BME280;45528;52.102;5.242;2023-05-20T10:21:34;101933.0;;;25.14;30.34
32452;BME280;45528;52.102;5.242;2023-05-20T10:23:19;101921.0;;;24.97;30.82
32452;BME280;45528;52.102;5.242;2023-05-20T10:24:58;101917.0;;;24.65;31.37
32452;BME280;45528;52.102;5.242;2023-05-20T10:28:12;101923.0;;;24.76;31.76
32452;BME280;45528;52.102;5.242;2023-05-20T10:29:50;101915.0;;;24.84;31.13
32452;BME280;45528;52.102;5.242;2023-05-20T10:31:27;101905.0;;;24.97;31.79
32452;BME280;45528;52.102;5.242;2023-05-20T10:33:04;101900.0;;;25.43;30.62
32452;BME280;45528;52.102;5.242;2023-05-20T10:36:26;101896.0;;;26.06;30.45
32452;BME280;45528;52.102;5.242;2023-05-20T10:38:07;101899.0;;;26.18;30.05
32452;BME280;45528;52.102;5.242;2023-05-20T10:39:44;101896.0;;;26.3;29.91
32452;BME280;45528;52.102;5.242;2023-05-20T10:41:23;101892.0;;;26.94;29.87
32452;BME280;45528;52.102;5.242;2023-05-20T10:44:45;101893.0;;;26.81;29.12
32452;BME280;45528;52.102;5.242;2023-05-20T10:46:22;101896.0;;;26.18;29.09
32452;BME280;45528;52.102;5.242;2023-05-20T10:47:58;101896.0;;;26.17;29.28
32452;BME280;45528;52.102;5.242;2023-05-20T10:51:14;101896.0;;;26.71;30.49
32452;BME280;45528;52.102;5.242;2023-05-20T10:52:50;101899.0;;;26.39;29.89
32452;BME280;45528;52.102;5.242;2023-05-20T10:54:26;101888.0;;;25.7;30.1
32452;BME280;45528;52.102;5.242;2023-05-20T10:56:02;101887.0;;;26.5;29.94
32452;BME280;45528;52.102;5.242;2023-05-20T10:59:16;101884.0;;;26.88;29.73
32452;BME280;45528;52.102;5.242;2023-05-20T11:00:53;101890.0;;;26.98;30.41
32452;BME280;45528;52.102;5.242;2023-05-20T11:02:31;101875.0;;;27.19;29.52
32452;BME280;45528;52.102;5.242;2023-05-20T11:05:44;101878.0;;;27.14;28.58
32452;BME280;45528;52.102;5.242;2023-05-20T11:07:24;101892.0;;;26.51;29.31